sensor_id;sensor_type;location;lat;lon;timestamp;pressure;altitude;pressure_sealevel;temperature;humidity
76987;BME280;65922;50.086;8.598;2023-02-19T00:00:45;101050;;;9.8;78.5
76987;BME280;65922;50.086;8.598;2023-02-19T00:01:45;101050;;;9.8;78.4
76987;BME280;65922;50.086;8.598;2023-02-19T00:02:46;101060;;;9.8;78.4
76987;BME280;65922;50.086;8.598;2023-02-19T00:03:47;101060;;;9.9;78.4
76987;BME280;65922;50.086;8.598;2023-02-19T00:04:45;101060;;;9.8;78.6
76987;BME280;65922;50.086;8.598;2023-02-19T00:05:45;101050;;;9.8;78.5
76987;BME280;65922;50.086;8.598;2023-02-19T00:06:45;101050;;;9.8;78.5
76987;BME280;65922;50.086;8.598;2023-02-19T00:07:45;101060;;;9.8;78.5
76987;BME280;65922;50.086;8.598;2023-02-19T00:08:45;101050;;;9.8;78.6
76987;BME280;65922;50.086;8.598;2023-02-19T00:09:45;101050;;;9.8;78.8
76987;BME280;65922;50.086;8.598;2023-02-19T00:10:45;101050;;;9.8;79
76987;BME280;65922;50.086;8.598;2023-02-19T00:11:45;101050;;;9.8;78.9
76987;BME280;65922;50.086;8.598;2023-02-19T00:12:45;101050;;;9.8;78.9
76987;BME280;65922;50.086;8.598;2023-02-19T00:13:46;101040;;;9.8;78.9
76987;BME280;65922;50.086;8.598;2023-02-19T00:14:45;101050;;;9.8;78.8
76987;BME280;65922;50.086;8.598;2023-02-19T00:15:45;101040;;;9.7;79.1
76987;BME280;65922;50.086;8.598;2023-02-19T00:16:45;101030;;;9.8;78.9
76987;BME280;65922;50.086;8.598;2023-02-19T00:17:45;101030;;;9.8;79
76987;BME280;65922;50.086;8.598;2023-02-19T00:18:45;101030;;;9.7;79.2
76987;BME280;65922;50.086;8.598;2023-02-19T00:19:45;101030;;;9.7;79.3
76987;BME280;65922;50.086;8.598;2023-02-19T00:20:45;101020;;;9.7;79.3
76987;BME280;65922;50.086;8.598;2023-02-19T00:21:45;101020;;;9.7;79.3
76987;BME280;65922;50.086;8.598;2023-02-19T00:22:45;101030;;;9.7;79.2
76987;BME280;65922;50.086;8.598;2023-02-19T00:23:47;101020;;;9.7;79.4
76987;BME280;65922;50.086;8.598;2023-02-19T00:24:45;101030;;;9.7;79.4
76987;BME280;65922;50.086;8.598;2023-02-19T00:25:45;101030;;;9.7;79.2
76987;BME280;65922;50.086;8.598;2023-02-19T00:26:45;101040;;;9.8;79.2
76987;BME280;65922;50.086;8.598;2023-02-19T00:27:45;101040;;;9.7;79.1
76987;BME280;65922;50.086;8.598;2023-02-19T00:28:45;101040;;;9.8;79
76987;BME280;65922;50.086;8.598;2023-02-19T00:29:45;101030;;;9.7;79.2
76987;BME280;65922;50.086;8.598;2023-02-19T00:30:45;101040;;;9.7;79.3
76987;BME280;65922;50.086;8.598;2023-02-19T00:31:45;101030;;;9.7;79.3
76987;BME280;65922;50.086;8.598;2023-02-19T00:32:48;101040;;;9.7;79.4
76987;BME280;65922;50.086;8.598;2023-02-19T00:33:45;101040;;;9.6;79.7
76987;BME280;65922;50.086;8.598;2023-02-19T00:34:45;101040;;;9.7;79.6
76987;BME280;65922;50.086;8.598;2023-02-19T00:35:45;101040;;;9.8;79.3
76987;BME280;65922;50.086;8.598;2023-02-19T00:36:45;101040;;;9.7;79.3
76987;BME280;65922;50.086;8.598;2023-02-19T00:37:45;101040;;;9.7;79.4
76987;BME280;65922;50.086;8.598;2023-02-19T00:38:45;101040;;;9.7;79.4
76987;BME280;65922;50.086;8.598;2023-02-19T00:39:45;101040;;;9.7;79.5
76987;BME280;65922;50.086;8.598;2023-02-19T00:40:45;101040;;;9.7;79.5
76987;BME280;65922;50.086;8.598;2023-02-19T00:41:45;101040;;;9.7;79.6
76987;BME280;65922;50.086;8.598;2023-02-19T00:42:45;101040;;;9.7;79.6
76987;BME280;65922;50.086;8.598;2023-02-19T00:43:45;101040;;;9.7;79.8
76987;BME280;65922;50.086;8.598;2023-02-19T00:44:45;101050;;;9.7;79.8
76987;BME280;65922;50.086;8.598;2023-02-19T00:45:45;101050;;;9.7;79.7
76987;BME280;65922;50.086;8.598;2023-02-19T00:46:46;101050;;;9.7;79.5
76987;BME280;65922;50.086;8.598;2023-02-19T00:47:45;101050;;;9.7;79.6
76987;BME280;65922;50.086;8.598;2023-02-19T00:48:45;101040;;;9.7;79.7
76987;BME280;65922;50.086;8.598;2023-02-19T00:49:45;101040;;;9.7;79.7
76987;BME280;65922;50.086;8.598;2023-02-19T00:50:45;101030;;;9.7;79.8
76987;BME280;65922;50.086;8.598;2023-02-19T00:51:45;101030;;;9.7;79.8
76987;BME280;65922;50.086;8.598;2023-02-19T00:52:45;101020;;;9.6;80.2
76987;BME280;65922;50.086;8.598;2023-02-19T00:53:45;101020;;;9.6;80.2
76987;BME280;65922;50.086;8.598;2023-02-19T00:54:45;101020;;;9.6;80.3
76987;BME280;65922;50.086;8.598;2023-02-19T00:55:45;101020;;;9.6;80.3
76987;BME280;65922;50.086;8.598;2023-02-19T00:56:45;101020;;;9.6;80.3
76987;BME280;65922;50.086;8.598;2023-02-19T00:57:45;101020;;;9.6;80.3
76987;BME280;65922;50.086;8.598;2023-02-19T00:58:45;101010;;;9.6;80.5
76987;BME280;65922;50.086;8.598;2023-02-19T00:59:45;101020;;;9.5;80.6
76987;BME280;65922;50.086;8.598;2023-02-19T01:00:45;101010;;;9.6;80.5
76987;BME280;65922;50.086;8.598;2023-02-19T01:01:45;101030;;;9.6;80.3
76987;BME280;65922;50.086;8.598;2023-02-19T01:02:45;101030;;;9.6;80.1
76987;BME280;65922;50.086;8.598;2023-02-19T01:03:45;101020;;;9.6;80.2
76987;BME280;65922;50.086;8.598;2023-02-19T01:04:45;101020;;;9.6;80.5
76987;BME280;65922;50.086;8.598;2023-02-19T01:05:45;101030;;;9.6;80.5
76987;BME280;65922;50.086;8.598;2023-02-19T01:06:46;101020;;;9.6;80.4
76987;BME280;65922;50.086;8.598;2023-02-19T01:07:45;101030;;;9.6;80.4
76987;BME280;65922;50.086;8.598;2023-02-19T01:08:45;101020;;;9.6;80.3
76987;BME280;65922;50.086;8.598;2023-02-19T01:09:45;101020;;;9.6;80.4
76987;BME280;65922;50.086;8.598;2023-02-19T01:10:45;101010;;;9.6;80.4
76987;BME280;65922;50.086;8.598;2023-02-19T01:11:45;101020;;;9.6;80.3
76987;BME280;65922;50.086;8.598;2023-02-19T01:12:45;101010;;;9.6;80.2
76987;BME280;65922;50.086;8.598;2023-02-19T01:13:45;101010;;;9.6;80.5
76987;BME280;65922;50.086;8.598;2023-02-19T01:14:45;101020;;;9.6;80.4
76987;BME280;65922;50.086;8.598;2023-02-19T01:15:45;101020;;;9.6;80.4
76987;BME280;65922;50.086;8.598;2023-02-19T01:16:45;101010;;;9.7;80.2
76987;BME280;65922;50.086;8.598;2023-02-19T01:17:45;101010;;;9.6;80.3
76987;BME280;65922;50.086;8.598;2023-02-19T01:18:45;101010;;;9.6;80.4
76987;BME280;65922;50.086;8.598;2023-02-19T01:19:45;101010;;;9.6;80.2
76987;BME280;65922;50.086;8.598;2023-02-19T01:20:45;101010;;;9.6;80.2
76987;BME280;65922;50.086;8.598;2023-02-19T01:21:45;101010;;;9.6;80.3
76987;BME280;65922;50.086;8.598;2023-02-19T01:22:45;101000;;;9.6;80.6
76987;BME280;65922;50.086;8.598;2023-02-19T01:23:45;101010;;;9.6;80.7
76987;BME280;65922;50.086;8.598;2023-02-19T01:24:45;101000;;;9.6;80.7
76987;BME280;65922;50.086;8.598;2023-02-19T01:25:45;101010;;;9.6;80.6
76987;BME280;65922;50.086;8.598;2023-02-19T01:26:45;101000;;;9.6;80.5
76987;BME280;65922;50.086;8.598;2023-02-19T01:27:45;101000;;;9.6;80.3
76987;BME280;65922;50.086;8.598;2023-02-19T01:28:45;101000;;;9.7;80.3
76987;BME280;65922;50.086;8.598;2023-02-19T01:29:45;101000;;;9.7;80.3
76987;BME280;65922;50.086;8.598;2023-02-19T01:30:45;101000;;;9.7;80.1
76987;BME280;65922;50.086;8.598;2023-02-19T01:31:45;101000;;;9.7;80
76987;BME280;65922;50.086;8.598;2023-02-19T01:32:45;101000;;;9.7;80.1
76987;BME280;65922;50.086;8.598;2023-02-19T01:33:45;101010;;;9.8;80
76987;BME280;65922;50.086;8.598;2023-02-19T01:34:45;101000;;;9.7;80
76987;BME280;65922;50.086;8.598;2023-02-19T01:35:45;101000;;;9.7;80
76987;BME280;65922;50.086;8.598;2023-02-19T01:36:45;100990;;;9.7;80.1
76987;BME280;65922;50.086;8.598;2023-02-19T01:37:45;100990;;;9.7;80.1
76987;BME280;65922;50.086;8.598;2023-02-19T01:38:45;100980;;;9.6;80.4
76987;BME280;65922;50.086;8.598;2023-02-19T01:39:46;101000;;;9.6;80.6
76987;BME280;65922;50.086;8.598;2023-02-19T01:40:52;101000;;;9.7;80.4
76987;BME280;65922;50.086;8.598;2023-02-19T01:41:45;101000;;;9.7;80.3
76987;BME280;65922;50.086;8.598;2023-02-19T01:42:45;100990;;;9.7;80.3
76987;BME280;65922;50.086;8.598;2023-02-19T01:45:53;100990;;;9.7;80.3
76987;BME280;65922;50.086;8.598;2023-02-19T01:46:52;100980;;;9.6;80.6
76987;BME280;65922;50.086;8.598;2023-02-19T01:48:01;100990;;;9.6;80.6
76987;BME280;65922;50.086;8.598;2023-02-19T01:48:52;100990;;;9.6;80.8
76987;BME280;65922;50.086;8.598;2023-02-19T01:49:53;100990;;;9.5;80.8
76987;BME280;65922;50.086;8.598;2023-02-19T01:50:53;100980;;;9.5;81.1
76987;BME280;65922;50.086;8.598;2023-02-19T01:51:53;100990;;;9.5;80.9
76987;BME280;65922;50.086;8.598;2023-02-19T01:52:52;100980;;;9.5;81.1
76987;BME280;65922;50.086;8.598;2023-02-19T01:53:53;100980;;;9.6;80.8
76987;BME280;65922;50.086;8.598;2023-02-19T01:54:52;100980;;;9.4;81.6
76987;BME280;65922;50.086;8.598;2023-02-19T01:55:53;100970;;;9.4;82.2
76987;BME280;65922;50.086;8.598;2023-02-19T01:56:52;100980;;;9.2;83
76987;BME280;65922;50.086;8.598;2023-02-19T01:57:53;100980;;;9.3;83.1
76987;BME280;65922;50.086;8.598;2023-02-19T01:58:52;100980;;;9.3;83.4
76987;BME280;65922;50.086;8.598;2023-02-19T01:59:53;100980;;;9.3;83.4
76987;BME280;65922;50.086;8.598;2023-02-19T02:00:52;100970;;;9.3;83.4
76987;BME280;65922;50.086;8.598;2023-02-19T02:01:52;100970;;;9.2;83.6
76987;BME280;65922;50.086;8.598;2023-02-19T02:02:53;100980;;;9.2;83.8
76987;BME280;65922;50.086;8.598;2023-02-19T02:03:52;100980;;;9.1;84.2
76987;BME280;65922;50.086;8.598;2023-02-19T02:04:52;100970;;;9.2;83.8
76987;BME280;65922;50.086;8.598;2023-02-19T02:05:54;100990;;;9.3;83.5
76987;BME280;65922;50.086;8.598;2023-02-19T02:06:53;100970;;;9.3;83.5
76987;BME280;65922;50.086;8.598;2023-02-19T02:07:52;100980;;;9.2;83.7
76987;BME280;65922;50.086;8.598;2023-02-19T02:08:54;100970;;;9.2;83.5
76987;BME280;65922;50.086;8.598;2023-02-19T02:09:52;100970;;;9.4;83.1
76987;BME280;65922;50.086;8.598;2023-02-19T02:10:52;100970;;;9.4;82.7
76987;BME280;65922;50.086;8.598;2023-02-19T02:11:52;100980;;;9.5;82.3
76987;BME280;65922;50.086;8.598;2023-02-19T02:12:56;100970;;;9.5;82.2
76987;BME280;65922;50.086;8.598;2023-02-19T02:13:52;100970;;;9.4;82.6
76987;BME280;65922;50.086;8.598;2023-02-19T02:14:52;100980;;;9.4;82.5
76987;BME280;65922;50.086;8.598;2023-02-19T02:15:54;100970;;;9.4;82.3
76987;BME280;65922;50.086;8.598;2023-02-19T02:16:54;100970;;;9.5;82.1
76987;BME280;65922;50.086;8.598;2023-02-19T02:17:53;100970;;;9.5;82
76987;BME280;65922;50.086;8.598;2023-02-19T02:18:57;100970;;;9.4;82
76987;BME280;65922;50.086;8.598;2023-02-19T02:20:00;100970;;;9.4;82.5
76987;BME280;65922;50.086;8.598;2023-02-19T02:21:00;100960;;;9.4;82.4
76987;BME280;65922;50.086;8.598;2023-02-19T02:21:56;100960;;;9.5;82.2
76987;BME280;65922;50.086;8.598;2023-02-19T02:22:54;100960;;;9.5;81.9
76987;BME280;65922;50.086;8.598;2023-02-19T02:23:57;100960;;;9.5;82
76987;BME280;65922;50.086;8.598;2023-02-19T02:24:58;100960;;;9.5;82.1
76987;BME280;65922;50.086;8.598;2023-02-19T02:26:01;100960;;;9.5;82
76987;BME280;65922;50.086;8.598;2023-02-19T02:26:55;100960;;;9.4;82.2
76987;BME280;65922;50.086;8.598;2023-02-19T02:27:55;100960;;;9.4;82.4
76987;BME280;65922;50.086;8.598;2023-02-19T02:28:59;100960;;;9.4;82.5
76987;BME280;65922;50.086;8.598;2023-02-19T02:29:55;100960;;;9.4;82.6
76987;BME280;65922;50.086;8.598;2023-02-19T02:30:53;100960;;;9.4;82.6
76987;BME280;65922;50.086;8.598;2023-02-19T02:31:53;100950;;;9.4;82.7
76987;BME280;65922;50.086;8.598;2023-02-19T02:32:53;100950;;;9.5;82.5
76987;BME280;65922;50.086;8.598;2023-02-19T02:33:54;100950;;;9.5;82.4
76987;BME280;65922;50.086;8.598;2023-02-19T02:34:53;100950;;;9.4;82.6
76987;BME280;65922;50.086;8.598;2023-02-19T02:35:53;100950;;;9.5;82.6
76987;BME280;65922;50.086;8.598;2023-02-19T02:36:53;100960;;;9.5;82.2
76987;BME280;65922;50.086;8.598;2023-02-19T02:37:52;100960;;;9.5;82.4
76987;BME280;65922;50.086;8.598;2023-02-19T02:38:52;100960;;;9.5;82.4
76987;BME280;65922;50.086;8.598;2023-02-19T02:39:52;100950;;;9.6;82.4
76987;BME280;65922;50.086;8.598;2023-02-19T02:40:52;100940;;;9.5;82.6
76987;BME280;65922;50.086;8.598;2023-02-19T02:41:54;100950;;;9.5;82.8
76987;BME280;65922;50.086;8.598;2023-02-19T02:42:55;100960;;;9.5;82.6
76987;BME280;65922;50.086;8.598;2023-02-19T02:43:52;100960;;;9.5;82.6
76987;BME280;65922;50.086;8.598;2023-02-19T02:44:52;100960;;;9.5;82.9
76987;BME280;65922;50.086;8.598;2023-02-19T02:45:52;100950;;;9.5;82.8
76987;BME280;65922;50.086;8.598;2023-02-19T02:46:52;100940;;;9.5;82.9
76987;BME280;65922;50.086;8.598;2023-02-19T02:47:53;100930;;;9.4;83.1
76987;BME280;65922;50.086;8.598;2023-02-19T02:48:53;100920;;;9.3;83.4
76987;BME280;65922;50.086;8.598;2023-02-19T02:49:52;100920;;;9.3;83.6
76987;BME280;65922;50.086;8.598;2023-02-19T02:50:53;100920;;;9.2;84
76987;BME280;65922;50.086;8.598;2023-02-19T02:51:52;100920;;;9.3;83.8
76987;BME280;65922;50.086;8.598;2023-02-19T02:52:54;100940;;;9.2;84
76987;BME280;65922;50.086;8.598;2023-02-19T02:53:53;100930;;;9.1;84.2
76987;BME280;65922;50.086;8.598;2023-02-19T02:54:52;100930;;;9.2;84.1
76987;BME280;65922;50.086;8.598;2023-02-19T02:55:52;100940;;;9.3;84
76987;BME280;65922;50.086;8.598;2023-02-19T02:56:53;100940;;;9.3;83.8
76987;BME280;65922;50.086;8.598;2023-02-19T02:57:52;100940;;;9.3;83.9
76987;BME280;65922;50.086;8.598;2023-02-19T02:58:52;100940;;;9.3;83.9
76987;BME280;65922;50.086;8.598;2023-02-19T02:59:52;100950;;;9.3;83.9
76987;BME280;65922;50.086;8.598;2023-02-19T03:00:53;100930;;;9.4;83.5
76987;BME280;65922;50.086;8.598;2023-02-19T03:01:53;100930;;;9.3;83.5
76987;BME280;65922;50.086;8.598;2023-02-19T03:02:52;100920;;;9.4;83.4
76987;BME280;65922;50.086;8.598;2023-02-19T03:03:53;100920;;;9.4;83.3
76987;BME280;65922;50.086;8.598;2023-02-19T03:04:54;100930;;;9.3;83.4
76987;BME280;65922;50.086;8.598;2023-02-19T03:05:53;100920;;;9.3;83.6
76987;BME280;65922;50.086;8.598;2023-02-19T03:06:52;100930;;;9.4;83.5
76987;BME280;65922;50.086;8.598;2023-02-19T03:07:53;100930;;;9.4;83.3
76987;BME280;65922;50.086;8.598;2023-02-19T03:08:53;100940;;;9.4;83.3
76987;BME280;65922;50.086;8.598;2023-02-19T03:09:52;100940;;;9.4;83.2
76987;BME280;65922;50.086;8.598;2023-02-19T03:10:53;100940;;;9.4;83.1
76987;BME280;65922;50.086;8.598;2023-02-19T03:11:52;100940;;;9.5;83
76987;BME280;65922;50.086;8.598;2023-02-19T03:12:53;100940;;;9.4;83
76987;BME280;65922;50.086;8.598;2023-02-19T03:13:54;100930;;;9.4;83
76987;BME280;65922;50.086;8.598;2023-02-19T03:14:53;100930;;;9.4;83.1
76987;BME280;65922;50.086;8.598;2023-02-19T03:15:53;100930;;;9.4;83.1
76987;BME280;65922;50.086;8.598;2023-02-19T03:16:53;100930;;;9.4;83.3
76987;BME280;65922;50.086;8.598;2023-02-19T03:17:56;100920;;;9.4;83.1
76987;BME280;65922;50.086;8.598;2023-02-19T03:18:53;100920;;;9.4;83
76987;BME280;65922;50.086;8.598;2023-02-19T03:19:53;100920;;;9.4;83.1
76987;BME280;65922;50.086;8.598;2023-02-19T03:20:54;100930;;;9.4;83
76987;BME280;65922;50.086;8.598;2023-02-19T03:21:53;100930;;;9.4;82.9
76987;BME280;65922;50.086;8.598;2023-02-19T03:22:52;100920;;;9.4;82.9
76987;BME280;65922;50.086;8.598;2023-02-19T03:23:52;100930;;;9.4;83
76987;BME280;65922;50.086;8.598;2023-02-19T03:24:53;100920;;;9.4;83.1
76987;BME280;65922;50.086;8.598;2023-02-19T03:25:52;100940;;;9.4;83.1
76987;BME280;65922;50.086;8.598;2023-02-19T03:26:52;100940;;;9.4;83
76987;BME280;65922;50.086;8.598;2023-02-19T03:27:52;100930;;;9.4;83.1
76987;BME280;65922;50.086;8.598;2023-02-19T03:28:52;100920;;;9.5;83
76987;BME280;65922;50.086;8.598;2023-02-19T03:29:53;100920;;;9.4;83.1
76987;BME280;65922;50.086;8.598;2023-02-19T03:30:52;100940;;;9.4;83.3
76987;BME280;65922;50.086;8.598;2023-02-19T03:31:54;100930;;;9.4;83.4
76987;BME280;65922;50.086;8.598;2023-02-19T03:32:53;100930;;;9.4;83.6
76987;BME280;65922;50.086;8.598;2023-02-19T03:33:53;100940;;;9.4;83.8
76987;BME280;65922;50.086;8.598;2023-02-19T03:34:53;100940;;;9.4;83.7
76987;BME280;65922;50.086;8.598;2023-02-19T03:35:54;100940;;;9.4;83.8
76987;BME280;65922;50.086;8.598;2023-02-19T03:36:54;100930;;;9.4;83.9
76987;BME280;65922;50.086;8.598;2023-02-19T03:37:54;100940;;;9.4;84
76987;BME280;65922;50.086;8.598;2023-02-19T03:38:55;100940;;;9.4;84.1
76987;BME280;65922;50.086;8.598;2023-02-19T03:39:52;100940;;;9.4;84.3
76987;BME280;65922;50.086;8.598;2023-02-19T03:40:53;100940;;;9.3;84.5
76987;BME280;65922;50.086;8.598;2023-02-19T03:41:54;100930;;;9.3;84.6
76987;BME280;65922;50.086;8.598;2023-02-19T03:42:54;100940;;;9.3;84.6
76987;BME280;65922;50.086;8.598;2023-02-19T03:43:53;100930;;;9.3;84.7
76987;BME280;65922;50.086;8.598;2023-02-19T03:44:57;100920;;;9.2;85
76987;BME280;65922;50.086;8.598;2023-02-19T03:45:54;100930;;;9.2;85.1
76987;BME280;65922;50.086;8.598;2023-02-19T03:46:53;100920;;;9.2;85.3
76987;BME280;65922;50.086;8.598;2023-02-19T03:47:53;100920;;;9.1;85.5
76987;BME280;65922;50.086;8.598;2023-02-19T03:48:53;100930;;;9.2;85.5
76987;BME280;65922;50.086;8.598;2023-02-19T03:49:53;100930;;;9.2;85.6
76987;BME280;65922;50.086;8.598;2023-02-19T03:50:55;100940;;;9.2;85.5
76987;BME280;65922;50.086;8.598;2023-02-19T03:51:53;100940;;;9.3;85.4
76987;BME280;65922;50.086;8.598;2023-02-19T03:52:54;100950;;;9.3;85.3
76987;BME280;65922;50.086;8.598;2023-02-19T03:53:54;100950;;;9.3;85.2
76987;BME280;65922;50.086;8.598;2023-02-19T03:54:53;100950;;;9.3;85.3
76987;BME280;65922;50.086;8.598;2023-02-19T03:55:53;100950;;;9.3;85.4
76987;BME280;65922;50.086;8.598;2023-02-19T03:56:53;100960;;;9.3;85.3
76987;BME280;65922;50.086;8.598;2023-02-19T03:57:52;100950;;;9.3;85.4
76987;BME280;65922;50.086;8.598;2023-02-19T03:58:54;100950;;;9.3;85.3
76987;BME280;65922;50.086;8.598;2023-02-19T03:59:53;100960;;;9.3;85.4
76987;BME280;65922;50.086;8.598;2023-02-19T04:00:53;100960;;;9.3;85.5
76987;BME280;65922;50.086;8.598;2023-02-19T04:01:53;100960;;;9.3;85.5
76987;BME280;65922;50.086;8.598;2023-02-19T04:02:53;100960;;;9.3;85.5
76987;BME280;65922;50.086;8.598;2023-02-19T04:03:53;100950;;;9.3;85.4
76987;BME280;65922;50.086;8.598;2023-02-19T04:04:53;100960;;;9.3;85.4
76987;BME280;65922;50.086;8.598;2023-02-19T04:05:54;100950;;;9.3;85.4
76987;BME280;65922;50.086;8.598;2023-02-19T04:06:53;100960;;;9.2;85.6
76987;BME280;65922;50.086;8.598;2023-02-19T04:07:54;100950;;;9.2;85.6
76987;BME280;65922;50.086;8.598;2023-02-19T04:08:53;100960;;;9.3;85.5
76987;BME280;65922;50.086;8.598;2023-02-19T04:09:52;100950;;;9.3;85.5
76987;BME280;65922;50.086;8.598;2023-02-19T04:10:52;100960;;;9.2;85.5
76987;BME280;65922;50.086;8.598;2023-02-19T04:11:52;100950;;;9.3;85.5
76987;BME280;65922;50.086;8.598;2023-02-19T04:12:54;100960;;;9.2;85.5
76987;BME280;65922;50.086;8.598;2023-02-19T04:13:54;100950;;;9.3;85.5
76987;BME280;65922;50.086;8.598;2023-02-19T04:14:53;100960;;;9.2;85.5
76987;BME280;65922;50.086;8.598;2023-02-19T04:15:53;100950;;;9.2;85.6
76987;BME280;65922;50.086;8.598;2023-02-19T04:16:53;100960;;;9.2;85.3
76987;BME280;65922;50.086;8.598;2023-02-19T04:17:53;100950;;;9.2;85.5
76987;BME280;65922;50.086;8.598;2023-02-19T04:18:54;100950;;;9.2;85.4
76987;BME280;65922;50.086;8.598;2023-02-19T04:19:52;100940;;;9.2;85.5
76987;BME280;65922;50.086;8.598;2023-02-19T04:20:52;100950;;;9.2;85.4
76987;BME280;65922;50.086;8.598;2023-02-19T04:21:52;100950;;;9.2;85.2
76987;BME280;65922;50.086;8.598;2023-02-19T04:22:52;100950;;;9.3;85
76987;BME280;65922;50.086;8.598;2023-02-19T04:23:52;100950;;;9.3;84.8
76987;BME280;65922;50.086;8.598;2023-02-19T04:24:52;100940;;;9.3;84.5
76987;BME280;65922;50.086;8.598;2023-02-19T04:25:53;100950;;;9.3;84.3
76987;BME280;65922;50.086;8.598;2023-02-19T04:26:52;100950;;;9.4;84.1
76987;BME280;65922;50.086;8.598;2023-02-19T04:27:52;100950;;;9.4;83.7
76987;BME280;65922;50.086;8.598;2023-02-19T04:28:53;100960;;;9.4;83.8
76987;BME280;65922;50.086;8.598;2023-02-19T04:29:52;100950;;;9.5;83.3
76987;BME280;65922;50.086;8.598;2023-02-19T04:30:52;100950;;;9.5;83.2
76987;BME280;65922;50.086;8.598;2023-02-19T04:31:52;100950;;;9.5;83.1
76987;BME280;65922;50.086;8.598;2023-02-19T04:32:52;100950;;;9.5;82.8
76987;BME280;65922;50.086;8.598;2023-02-19T04:33:52;100950;;;9.5;82.7
76987;BME280;65922;50.086;8.598;2023-02-19T04:34:52;100960;;;9.6;82.3
76987;BME280;65922;50.086;8.598;2023-02-19T04:35:52;100950;;;9.7;81.8
76987;BME280;65922;50.086;8.598;2023-02-19T04:36:52;100960;;;9.7;81.7
76987;BME280;65922;50.086;8.598;2023-02-19T04:37:52;100950;;;9.6;82
76987;BME280;65922;50.086;8.598;2023-02-19T04:38:52;100960;;;9.6;82
76987;BME280;65922;50.086;8.598;2023-02-19T04:39:52;100960;;;9.5;82.3
76987;BME280;65922;50.086;8.598;2023-02-19T04:40:52;100960;;;9.7;81.6
76987;BME280;65922;50.086;8.598;2023-02-19T04:41:52;100960;;;9.8;81.2
76987;BME280;65922;50.086;8.598;2023-02-19T04:42:52;100970;;;9.7;81.4
76987;BME280;65922;50.086;8.598;2023-02-19T04:43:52;100960;;;9.7;81.1
76987;BME280;65922;50.086;8.598;2023-02-19T04:44:52;100960;;;9.8;80.7
76987;BME280;65922;50.086;8.598;2023-02-19T04:45:52;100960;;;9.8;80.6
76987;BME280;65922;50.086;8.598;2023-02-19T04:46:52;100960;;;9.8;80.8
76987;BME280;65922;50.086;8.598;2023-02-19T04:47:52;100970;;;9.8;80.7
76987;BME280;65922;50.086;8.598;2023-02-19T04:48:52;100960;;;9.8;80.9
76987;BME280;65922;50.086;8.598;2023-02-19T04:49:52;100980;;;9.8;80.5
76987;BME280;65922;50.086;8.598;2023-02-19T04:50:52;100980;;;9.9;80.4
76987;BME280;65922;50.086;8.598;2023-02-19T04:51:52;100980;;;9.9;80.4
76987;BME280;65922;50.086;8.598;2023-02-19T04:52:52;100990;;;9.9;80.3
76987;BME280;65922;50.086;8.598;2023-02-19T04:53:52;100990;;;9.9;80.1
76987;BME280;65922;50.086;8.598;2023-02-19T04:54:52;100990;;;9.9;80.1
76987;BME280;65922;50.086;8.598;2023-02-19T04:55:52;100990;;;9.9;80.1
76987;BME280;65922;50.086;8.598;2023-02-19T04:56:52;101000;;;9.8;80.3
76987;BME280;65922;50.086;8.598;2023-02-19T04:57:52;100990;;;9.9;80.2
76987;BME280;65922;50.086;8.598;2023-02-19T04:58:52;100990;;;9.9;79.9
76987;BME280;65922;50.086;8.598;2023-02-19T04:59:52;100990;;;9.9;79.9
76987;BME280;65922;50.086;8.598;2023-02-19T05:00:52;100990;;;9.9;79.9
76987;BME280;65922;50.086;8.598;2023-02-19T05:01:52;101000;;;9.9;79.8
76987;BME280;65922;50.086;8.598;2023-02-19T05:02:52;101010;;;9.9;80
76987;BME280;65922;50.086;8.598;2023-02-19T05:03:52;101010;;;9.9;79.9
76987;BME280;65922;50.086;8.598;2023-02-19T05:04:52;101010;;;9.9;80
76987;BME280;65922;50.086;8.598;2023-02-19T05:05:52;101010;;;9.9;80.1
76987;BME280;65922;50.086;8.598;2023-02-19T05:06:52;101020;;;9.8;80
76987;BME280;65922;50.086;8.598;2023-02-19T05:07:52;101010;;;9.8;80.3
76987;BME280;65922;50.086;8.598;2023-02-19T05:08:52;101020;;;9.8;80.4
76987;BME280;65922;50.086;8.598;2023-02-19T05:09:52;101020;;;9.8;80.4
76987;BME280;65922;50.086;8.598;2023-02-19T05:10:55;101010;;;9.8;80.3
76987;BME280;65922;50.086;8.598;2023-02-19T05:11:52;101020;;;9.8;80.2
76987;BME280;65922;50.086;8.598;2023-02-19T05:12:53;101020;;;9.8;80.2
76987;BME280;65922;50.086;8.598;2023-02-19T05:13:53;101010;;;9.8;80.2
76987;BME280;65922;50.086;8.598;2023-02-19T05:14:52;101020;;;9.8;80.4
76987;BME280;65922;50.086;8.598;2023-02-19T05:15:53;101020;;;9.7;80.6
76987;BME280;65922;50.086;8.598;2023-02-19T05:16:52;101020;;;9.7;80.7
76987;BME280;65922;50.086;8.598;2023-02-19T05:17:52;101020;;;9.7;80.6
76987;BME280;65922;50.086;8.598;2023-02-19T05:18:52;101020;;;9.7;80.9
76987;BME280;65922;50.086;8.598;2023-02-19T05:19:52;101020;;;9.7;80.8
76987;BME280;65922;50.086;8.598;2023-02-19T05:20:52;101020;;;9.7;80.6
76987;BME280;65922;50.086;8.598;2023-02-19T05:21:52;101010;;;9.7;80.6
76987;BME280;65922;50.086;8.598;2023-02-19T05:22:53;101020;;;9.7;80.7
76987;BME280;65922;50.086;8.598;2023-02-19T05:23:52;101020;;;9.7;80.8
76987;BME280;65922;50.086;8.598;2023-02-19T05:24:52;101020;;;9.6;81
76987;BME280;65922;50.086;8.598;2023-02-19T05:25:52;101020;;;9.7;81
76987;BME280;65922;50.086;8.598;2023-02-19T05:26:52;101030;;;9.7;80.6
76987;BME280;65922;50.086;8.598;2023-02-19T05:27:52;101030;;;9.7;80.8
76987;BME280;65922;50.086;8.598;2023-02-19T05:28:52;101030;;;9.6;81
76987;BME280;65922;50.086;8.598;2023-02-19T05:29:52;101030;;;9.7;80.7
76987;BME280;65922;50.086;8.598;2023-02-19T05:30:53;101020;;;9.7;80.5
76987;BME280;65922;50.086;8.598;2023-02-19T05:31:52;101030;;;9.7;80.6
76987;BME280;65922;50.086;8.598;2023-02-19T05:32:52;101020;;;9.7;80.5
76987;BME280;65922;50.086;8.598;2023-02-19T05:33:53;101020;;;9.6;80.7
76987;BME280;65922;50.086;8.598;2023-02-19T05:34:52;101020;;;9.6;81
76987;BME280;65922;50.086;8.598;2023-02-19T05:35:53;101020;;;9.7;80.5
76987;BME280;65922;50.086;8.598;2023-02-19T05:36:52;101020;;;9.7;80.5
76987;BME280;65922;50.086;8.598;2023-02-19T05:37:52;101030;;;9.7;80.5
76987;BME280;65922;50.086;8.598;2023-02-19T05:38:53;101020;;;9.6;80.8
76987;BME280;65922;50.086;8.598;2023-02-19T05:39:52;101030;;;9.6;80.7
76987;BME280;65922;50.086;8.598;2023-02-19T05:40:52;101020;;;9.7;80.3
76987;BME280;65922;50.086;8.598;2023-02-19T05:41:52;101030;;;9.7;80
76987;BME280;65922;50.086;8.598;2023-02-19T05:42:52;101030;;;9.7;80.1
76987;BME280;65922;50.086;8.598;2023-02-19T05:43:52;101040;;;9.8;79.8